Time;durP1;ratioP1;P1;durP2;ratioP2;P2;SDS_P1;SDS_P2;PMS_P1;PMS_P2;Temp;Humidity;BMP_temperature;BMP_pressure;BME280_temperature;BME280_humidity;BME280_pressure;Samples;Min_cycle;Max_cycle;Signal;HPM_P1;HPM_P2
2021/09/07 04:52:40;;;;;;;23.17;17.70;;;;;;;;;;4946379;28;20686;-80
2021/09/07 04:55:07;;;;;;;25.35;19.00;;;;;;;;;;4946078;28;20396;-81
2021/09/07 04:57:41;;;;;;;23.65;18.15;;;;;;;;;;4939252;29;20430;-84
2021/09/07 05:00:09;;;;;;;25.95;18.13;;;;;;;;;;4941264;28;20233;-82
2021/09/07 05:02:37;;;;;;;30.65;27.35;;;;;;;;;;4967204;28;20042;-81
2021/09/07 05:05:05;;;;;;;23.85;18.65;;;;;;;;;;4965952;28;20515;-81
2021/09/07 05:07:33;;;;;;;25.52;18.35;;;;;;;;;;4967183;28;20612;-82
2021/09/07 05:10:01;;;;;;;23.65;17.50;;;;;;;;;;4970438;28;20105;-81
2021/09/07 05:12:29;;;;;;;22.25;18.10;;;;;;;;;;4970527;28;20046;-83
2021/09/07 05:15:01;;;;;;;22.85;18.23;;;;;;;;;;4965032;28;20035;-85
2021/09/07 05:17:29;;;;;;;21.80;17.65;;;;;;;;;;4967173;28;20046;-81
2021/09/07 05:19:56;;;;;;;21.08;17.15;;;;;;;;;;4970181;28;20060;-81
2021/09/07 05:22:26;;;;;;;26.52;17.92;;;;;;;;;;4968800;28;20050;-82
2021/09/07 05:24:54;;;;;;;30.25;19.02;;;;;;;;;;4967474;28;20070;-82
2021/09/07 05:27:23;;;;;;;22.10;18.35;;;;;;;;;;4954502;28;20134;-84
2021/09/07 05:29:50;;;;;;;24.52;18.27;;;;;;;;;;4972695;28;20042;-85
2021/09/07 05:32:17;;;;;;;23.70;18.17;;;;;;;;;;4955698;28;20057;-85
2021/09/07 05:34:45;;;;;;;23.67;19.25;;;;;;;;;;4970051;28;20046;-83
2021/09/07 05:37:12;;;;;;;26.45;18.40;;;;;;;;;;4969512;28;20468;-84
2021/09/07 05:39:39;;;;;;;27.60;19.10;;;;;;;;;;4970037;28;20039;-85
2021/09/07 05:42:07;;;;;;;27.05;17.85;;;;;;;;;;4952304;28;20212;-84
2021/09/07 05:44:36;;;;;;;27.73;17.10;;;;;;;;;;4951094;28;20539;-84
2021/09/07 05:47:03;;;;;;;25.45;17.73;;;;;;;;;;4968971;28;20042;-84
2021/09/07 05:49:31;;;;;;;21.40;17.10;;;;;;;;;;4970550;28;20035;-84
2021/09/07 05:51:58;;;;;;;28.48;19.25;;;;;;;;;;4956182;28;20106;-84
2021/09/07 05:54:27;;;;;;;22.92;18.80;;;;;;;;;;4986250;28;20043;-84
2021/09/07 05:56:57;;;;;;;26.23;19.38;;;;;;;;;;4953956;28;20467;-85
2021/09/07 05:59:25;;;;;;;22.08;18.50;;;;;;;;;;4974207;28;20062;-84
2021/09/07 06:01:54;;;;;;;22.85;18.45;;;;;;;;;;4972334;28;20047;-83
2021/09/07 06:04:22;;;;;;;24.85;18.23;;;;;;;;;;4978934;28;20050;-84
2021/09/07 06:06:49;;;;;;;27.33;18.42;;;;;;;;;;4981598;28;20054;-84
2021/09/07 06:09:16;;;;;;;23.20;17.60;;;;;;;;;;4985328;28;20039;-84
2021/09/07 06:11:44;;;;;;;26.90;19.48;;;;;;;;;;4982002;28;20456;-84
2021/09/07 06:14:11;;;;;;;25.77;18.17;;;;;;;;;;4971077;28;20027;-84
2021/09/07 06:16:38;;;;;;;24.83;18.75;;;;;;;;;;4999338;28;20031;-84
2021/09/07 06:19:07;;;;;;;27.67;17.75;;;;;;;;;;4980527;28;20043;-84
2021/09/07 06:21:34;;;;;;;26.25;18.92;;;;;;;;;;4982708;28;20027;-84
2021/09/07 06:24:02;;;;;;;25.92;16.92;;;;;;;;;;5012032;28;20214;-84
2021/09/07 06:26:29;;;;;;;26.23;18.08;;;;;;;;;;4994009;28;20086;-84
2021/09/07 06:28:57;;;;;;;26.55;17.05;;;;;;;;;;4966004;28;20069;-84
2021/09/07 06:31:24;;;;;;;26.42;18.38;;;;;;;;;;4972954;28;20487;-84
2021/09/07 06:33:51;;;;;;;20.50;16.73;;;;;;;;;;4976566;28;20047;-85
2021/09/07 06:36:20;;;;;;;24.40;17.45;;;;;;;;;;4973136;28;20039;-84
2021/09/07 06:38:48;;;;;;;29.77;17.38;;;;;;;;;;4971857;28;20062;-84
2021/09/07 06:41:15;;;;;;;24.88;17.55;;;;;;;;;;4973702;28;20444;-84
2021/09/07 06:43:43;;;;;;;25.00;17.65;;;;;;;;;;4966560;28;20043;-84
2021/09/07 06:46:11;;;;;;;25.08;17.88;;;;;;;;;;4983523;28;20238;-84
2021/09/07 06:48:38;;;;;;;23.38;18.17;;;;;;;;;;4973624;28;20471;-85
2021/09/07 06:51:06;;;;;;;23.35;18.33;;;;;;;;;;4950342;28;20134;-85
2021/09/07 06:53:45;;;;;;;21.67;17.92;;;;;;;;;;4967077;28;20499;-85
2021/09/07 06:56:19;;;;;;;21.08;17.58;;;;;;;;;;4956854;28;20252;-85
2021/09/07 06:58:46;;;;;;;22.73;18.48;;;;;;;;;;4973343;28;20039;-84
2021/09/07 07:01:13;;;;;;;22.48;17.65;;;;;;;;;;4955169;28;20113;-85
2021/09/07 07:03:41;;;;;;;22.88;17.92;;;;;;;;;;4972394;28;20500;-85
2021/09/07 07:06:08;;;;;;;22.27;18.98;;;;;;;;;;4955676;28;20057;-85
2021/09/07 07:08:37;;;;;;;23.92;17.40;;;;;;;;;;4956140;28;20563;-85
2021/09/07 07:11:04;;;;;;;21.60;17.38;;;;;;;;;;4972388;28;20055;-84
2021/09/07 07:13:32;;;;;;;22.60;17.95;;;;;;;;;;4955243;28;20429;-85
2021/09/07 07:15:59;;;;;;;22.48;18.27;;;;;;;;;;4972820;28;20043;-85
2021/09/07 07:18:26;;;;;;;23.15;18.38;;;;;;;;;;4956001;28;20101;-85
2021/09/07 07:20:54;;;;;;;24.25;18.30;;;;;;;;;;4972300;28;20054;-85
2021/09/07 07:23:21;;;;;;;25.33;19.83;;;;;;;;;;4972424;28;20042;-85
2021/09/07 07:25:50;;;;;;;25.58;19.10;;;;;;;;;;4978042;28;20047;-84
2021/09/07 07:28:17;;;;;;;24.90;19.67;;;;;;;;;;4973569;28;20408;-85
2021/09/07 07:30:45;;;;;;;28.55;19.73;;;;;;;;;;4955932;28;20039;-85
2021/09/07 07:33:14;;;;;;;31.67;19.98;;;;;;;;;;4973436;28;20133;-84
2021/09/07 07:35:41;;;;;;;22.20;18.70;;;;;;;;;;4972854;28;20054;-85
2021/09/07 07:38:09;;;;;;;23.05;19.38;;;;;;;;;;4971894;28;20043;-85
2021/09/07 07:40:36;;;;;;;22.77;18.85;;;;;;;;;;4971674;28;20118;-85
2021/09/07 07:43:05;;;;;;;21.65;18.67;;;;;;;;;;4954842;28;20035;-85
2021/09/07 07:45:33;;;;;;;23.55;19.25;;;;;;;;;;4955808;28;20039;-85
2021/09/07 07:48:00;;;;;;;31.88;19.45;;;;;;;;;;4974585;28;20043;-85
2021/09/07 07:50:29;;;;;;;48.85;20.30;;;;;;;;;;4956168;28;20070;-85
2021/09/07 07:52:58;;;;;;;23.50;19.30;;;;;;;;;;4969480;28;20349;-84
2021/09/07 07:55:25;;;;;;;24.65;20.05;;;;;;;;;;4951820;28;20047;-85
2021/09/07 07:57:53;;;;;;;24.63;19.45;;;;;;;;;;4971145;28;20489;-85
2021/09/07 08:00:21;;;;;;;26.10;19.30;;;;;;;;;;4965011;28;20071;-85
2021/09/07 08:02:49;;;;;;;25.08;18.35;;;;;;;;;;4965031;28;20043;-85
2021/09/07 08:05:16;;;;;;;22.52;19.25;;;;;;;;;;4967534;28;20113;-84
2021/09/07 08:07:43;;;;;;;21.45;19.02;;;;;;;;;;4960569;28;20039;-85
2021/09/07 08:10:11;;;;;;;23.50;19.15;;;;;;;;;;4969187;28;20059;-85
2021/09/07 08:12:39;;;;;;;28.45;20.42;;;;;;;;;;4965310;28;20158;-85
2021/09/07 08:15:06;;;;;;;26.58;18.92;;;;;;;;;;4950899;29;20063;-85
2021/09/07 08:17:35;;;;;;;26.67;19.10;;;;;;;;;;4967736;28;20046;-85
2021/09/07 08:20:02;;;;;;;21.05;18.55;;;;;;;;;;4953626;28;20035;-85
2021/09/07 08:22:30;;;;;;;24.55;19.15;;;;;;;;;;4972576;28;20039;-85
2021/09/07 08:24:57;;;;;;;27.92;18.38;;;;;;;;;;4969771;28;20484;-85
2021/09/07 08:27:24;;;;;;;20.35;17.33;;;;;;;;;;4948019;28;20292;-85
2021/09/07 08:29:52;;;;;;;21.45;18.17;;;;;;;;;;4969913;28;20038;-86
2021/09/07 08:32:19;;;;;;;20.90;18.67;;;;;;;;;;4961818;28;20500;-85
2021/09/07 08:34:48;;;;;;;25.08;18.05;;;;;;;;;;4963832;28;20491;-86
2021/09/07 08:37:15;;;;;;;23.63;18.55;;;;;;;;;;4961409;28;20118;-85
2021/09/07 08:39:42;;;;;;;19.98;17.10;;;;;;;;;;4966919;28;20126;-85
2021/09/07 08:42:12;;;;;;;22.00;17.98;;;;;;;;;;4972345;28;20058;-85
2021/09/07 08:44:45;;;;;;;22.67;18.75;;;;;;;;;;4972307;28;20030;-85
2021/09/07 08:47:14;;;;;;;19.20;17.08;;;;;;;;;;4948041;28;20043;-86
2021/09/07 08:49:41;;;;;;;25.13;18.50;;;;;;;;;;4940988;28;20038;-85
2021/09/07 08:52:11;;;;;;;22.00;17.73;;;;;;;;;;4969415;28;20074;-86
2021/09/07 08:54:38;;;;;;;19.70;17.65;;;;;;;;;;4976501;28;20063;-85
2021/09/07 08:57:06;;;;;;;18.70;16.80;;;;;;;;;;4971575;28;20072;-86
2021/09/07 08:59:34;;;;;;;21.10;17.30;;;;;;;;;;4938269;29;20047;-85
2021/09/07 09:02:12;;;;;;;19.15;17.25;;;;;;;;;;4966424;28;20027;-85
2021/09/07 09:04:39;;;;;;;21.83;17.77;;;;;;;;;;4988367;28;20102;-85
2021/09/07 09:07:07;;;;;;;18.60;16.60;;;;;;;;;;4990100;28;20050;-86
2021/09/07 09:09:39;;;;;;;19.33;16.02;;;;;;;;;;4984986;28;20078;-85
2021/09/07 09:12:07;;;;;;;18.10;16.23;;;;;;;;;;4965067;28;20051;-85
2021/09/07 09:14:35;;;;;;;20.50;17.00;;;;;;;;;;4980500;28;20074;-85
2021/09/07 09:17:05;;;;;;;19.52;16.17;;;;;;;;;;4974303;28;20072;-85
2021/09/07 09:19:48;;;;;;;19.77;16.52;;;;;;;;;;4971130;28;20067;-86
2021/09/07 09:22:16;;;;;;;23.15;16.85;;;;;;;;;;4969312;28;20039;-85
2021/09/07 09:24:45;;;;;;;18.20;16.35;;;;;;;;;;4955185;28;20043;-85
2021/09/07 09:27:12;;;;;;;19.17;15.95;;;;;;;;;;4953223;28;20045;-84
2021/09/07 09:29:41;;;;;;;19.70;17.42;;;;;;;;;;4970983;28;20047;-85
2021/09/07 09:32:10;;;;;;;21.50;16.05;;;;;;;;;;4972871;28;20109;-86
2021/09/07 09:34:38;;;;;;;20.50;16.83;;;;;;;;;;4956656;28;20039;-86
2021/09/07 09:37:06;;;;;;;20.38;17.58;;;;;;;;;;4972166;28;20097;-85
2021/09/07 09:39:41;;;;;;;17.48;15.68;;;;;;;;;;4971493;28;20047;-85
2021/09/07 09:42:10;;;;;;;17.45;15.75;;;;;;;;;;4959509;28;20074;-85
2021/09/07 09:44:38;;;;;;;19.75;16.38;;;;;;;;;;4975487;28;20042;-85
2021/09/07 09:47:06;;;;;;;21.08;16.40;;;;;;;;;;4976209;28;20043;-85
2021/09/07 09:49:34;;;;;;;18.30;15.05;;;;;;;;;;4957196;28;20070;-85
2021/09/07 09:52:03;;;;;;;19.38;16.30;;;;;;;;;;4954796;28;20051;-84
2021/09/07 09:54:34;;;;;;;21.70;17.35;;;;;;;;;;4972400;28;20538;-85
2021/09/07 09:57:03;;;;;;;20.08;17.55;;;;;;;;;;4975233;28;20065;-86
2021/09/07 09:59:32;;;;;;;19.70;16.73;;;;;;;;;;4976033;28;20070;-85
2021/09/07 10:02:00;;;;;;;19.80;17.73;;;;;;;;;;4957020;28;20560;-85
2021/09/07 10:04:28;;;;;;;20.35;16.50;;;;;;;;;;4975996;28;20408;-85
2021/09/07 10:06:55;;;;;;;18.00;16.13;;;;;;;;;;4993046;28;20049;-85
2021/09/07 10:09:24;;;;;;;17.65;15.80;;;;;;;;;;4973416;28;20041;-85
2021/09/07 10:11:53;;;;;;;19.13;17.13;;;;;;;;;;4978260;28;20039;-85
2021/09/07 10:14:21;;;;;;;18.92;16.80;;;;;;;;;;4990024;28;20436;-86
2021/09/07 10:16:56;;;;;;;19.50;17.15;;;;;;;;;;4975417;28;20038;-85
2021/09/07 10:19:57;;;;;;;18.70;16.75;;;;;;;;;;4972305;28;20134;-85
2021/09/07 10:25:38;;;;;;;18.25;16.45;;;;;;;;;;4942457;28;20184;-85
2021/09/07 10:28:08;;;;;;;17.85;15.95;;;;;;;;;;4956727;28;20043;-85
2021/09/07 10:30:54;;;;;;;18.60;16.38;;;;;;;;;;4974716;28;20512;-85
2021/09/07 10:33:33;;;;;;;19.27;15.63;;;;;;;;;;4974688;28;20054;-85
2021/09/07 10:36:07;;;;;;;19.60;16.10;;;;;;;;;;4973484;28;20055;-85
2021/09/07 10:38:37;;;;;;;15.82;14.23;;;;;;;;;;4959016;28;20047;-85
2021/09/07 10:41:04;;;;;;;15.98;14.38;;;;;;;;;;4974184;28;20064;-85
2021/09/07 10:44:05;;;;;;;16.75;15.15;;;;;;;;;;4957569;28;20039;-85
2021/09/07 10:46:39;;;;;;;20.08;15.88;;;;;;;;;;4975466;28;20052;-85
2021/09/07 10:49:18;;;;;;;17.77;15.27;;;;;;;;;;4973479;28;20512;-85
2021/09/07 10:52:04;;;;;;;16.45;14.80;;;;;;;;;;4971716;28;20497;-85
2021/09/07 10:54:32;;;;;;;17.85;16.08;;;;;;;;;;4958614;28;20509;-85
2021/09/07 10:56:59;;;;;;;17.13;15.43;;;;;;;;;;4952912;29;20129;-85
2021/09/07 10:59:56;;;;;;;16.73;15.13;;;;;;;;;;4954438;28;20098;-86
2021/09/07 11:02:35;;;;;;;17.35;13.30;;;;;;;;;;4905969;29;20035;-85
2021/09/07 11:05:04;;;;;;;15.98;13.45;;;;;;;;;;4959217;28;20093;-85
2021/09/07 11:07:40;;;;;;;15.32;13.73;;;;;;;;;;4952902;29;20039;-85
2021/09/07 11:10:08;;;;;;;16.15;13.13;;;;;;;;;;4966658;28;20250;-85
2021/09/07 11:12:35;;;;;;;14.88;13.48;;;;;;;;;;4943161;28;20075;-85
2021/09/07 11:15:04;;;;;;;13.13;11.93;;;;;;;;;;4954883;28;20063;-85
2021/09/07 11:17:31;;;;;;;15.95;13.25;;;;;;;;;;4968970;28;20452;-85
2021/09/07 11:19:59;;;;;;;13.40;12.00;;;;;;;;;;4959073;28;20043;-85
2021/09/07 11:22:29;;;;;;;13.82;12.35;;;;;;;;;;4970084;28;20189;-84
2021/09/07 11:25:07;;;;;;;13.77;12.25;;;;;;;;;;4942095;28;20516;-85
2021/09/07 11:27:54;;;;;;;13.48;12.15;;;;;;;;;;4942647;28;20067;-84
2021/09/07 11:30:32;;;;;;;12.20;11.00;;;;;;;;;;4961362;28;20564;-86
2021/09/07 11:33:01;;;;;;;13.23;11.95;;;;;;;;;;4949821;28;20048;-85
2021/09/07 11:35:28;;;;;;;13.68;12.23;;;;;;;;;;4954188;28;20053;-83
2021/09/07 11:38:04;;;;;;;12.93;11.70;;;;;;;;;;4955972;28;20043;-83
2021/09/07 11:40:32;;;;;;;15.82;11.70;;;;;;;;;;4944850;28;20043;-85
2021/09/07 11:43:01;;;;;;;14.35;11.25;;;;;;;;;;4968106;28;20067;-84
2021/09/07 11:45:30;;;;;;;12.57;10.40;;;;;;;;;;4964164;28;20107;-84
2021/09/07 11:47:58;;;;;;;12.15;10.50;;;;;;;;;;4955420;28;20055;-85
2021/09/07 11:50:29;;;;;;;11.23;10.13;;;;;;;;;;4982990;28;20027;-84
2021/09/07 11:52:57;;;;;;;10.55;9.45;;;;;;;;;;4995491;28;20093;-85
2021/09/07 11:55:52;;;;;;;10.43;9.40;;;;;;;;;;4987212;28;20029;-84
2021/09/07 11:58:25;;;;;;;11.00;9.80;;;;;;;;;;4942195;28;20051;-88
2021/09/07 12:00:59;;;;;;;9.80;8.77;;;;;;;;;;4995327;28;20050;-85
2021/09/07 12:03:31;;;;;;;11.13;8.93;;;;;;;;;;4966070;28;20059;-86
2021/09/07 12:05:59;;;;;;;9.55;8.27;;;;;;;;;;4946501;28;20043;-86
2021/09/07 12:08:38;;;;;;;13.13;8.50;;;;;;;;;;4936778;28;20046;-87
2021/09/07 12:11:06;;;;;;;10.30;9.13;;;;;;;;;;4958867;28;20050;-83
2021/09/07 12:13:35;;;;;;;9.93;8.07;;;;;;;;;;4955205;28;20061;-84
2021/09/07 12:16:03;;;;;;;10.63;8.93;;;;;;;;;;4962945;28;20050;-84
2021/09/07 12:18:31;;;;;;;11.55;9.18;;;;;;;;;;4934684;29;20046;-84
2021/09/07 12:21:09;;;;;;;11.10;8.63;;;;;;;;;;4971666;28;20291;-84
2021/09/07 12:23:37;;;;;;;10.25;9.18;;;;;;;;;;4963142;28;20043;-84
2021/09/07 12:26:04;;;;;;;9.48;8.57;;;;;;;;;;4968279;28;20039;-84
2021/09/07 12:28:32;;;;;;;9.10;8.27;;;;;;;;;;4956616;28;20128;-84
2021/09/07 12:31:14;;;;;;;10.98;8.55;;;;;;;;;;4947088;28;20058;-84
2021/09/07 12:33:43;;;;;;;9.85;8.50;;;;;;;;;;4965365;28;20444;-84
2021/09/07 12:36:10;;;;;;;9.88;8.40;;;;;;;;;;4963598;28;20051;-84
2021/09/07 12:38:39;;;;;;;8.82;8.02;;;;;;;;;;4984907;28;20459;-84
2021/09/07 12:41:08;;;;;;;9.10;8.20;;;;;;;;;;4971225;28;20038;-84
2021/09/07 12:43:41;;;;;;;9.07;8.30;;;;;;;;;;4966120;28;20384;-84
2021/09/07 12:46:09;;;;;;;8.77;7.80;;;;;;;;;;4950591;28;20036;-84
2021/09/07 12:48:39;;;;;;;8.73;7.93;;;;;;;;;;4966784;28;20043;-83
2021/09/07 12:51:07;;;;;;;9.07;8.18;;;;;;;;;;4950339;28;20313;-84
2021/09/07 12:53:38;;;;;;;9.35;8.45;;;;;;;;;;4959294;28;20047;-84
2021/09/07 12:56:07;;;;;;;9.70;8.68;;;;;;;;;;4965397;28;20488;-84
2021/09/07 12:58:36;;;;;;;8.93;8.10;;;;;;;;;;4967862;28;20070;-84
2021/09/07 13:01:07;;;;;;;12.13;9.02;;;;;;;;;;4965146;28;20110;-84
2021/09/07 13:03:37;;;;;;;11.07;8.25;;;;;;;;;;4968073;28;20061;-84
2021/09/07 13:06:09;;;;;;;11.98;7.97;;;;;;;;;;4973352;28;20046;-83
2021/09/07 13:08:36;;;;;;;10.60;8.35;;;;;;;;;;4969567;28;20105;-84
2021/09/07 13:11:04;;;;;;;12.25;9.07;;;;;;;;;;4967366;28;20133;-84
2021/09/07 13:13:31;;;;;;;10.13;9.10;;;;;;;;;;4959204;28;20659;-83
2021/09/07 13:15:59;;;;;;;11.20;10.02;;;;;;;;;;4968965;28;20074;-83
2021/09/07 13:18:28;;;;;;;10.52;9.50;;;;;;;;;;4970606;28;20129;-83
2021/09/07 13:20:57;;;;;;;11.23;9.43;;;;;;;;;;4948590;28;20058;-83
2021/09/07 13:23:26;;;;;;;12.30;9.18;;;;;;;;;;4970864;28;20039;-83
2021/09/07 13:25:54;;;;;;;10.55;9.48;;;;;;;;;;4974507;28;20101;-83
2021/09/07 13:28:21;;;;;;;9.65;8.65;;;;;;;;;;4971061;28;20327;-83
2021/09/07 13:30:49;;;;;;;10.55;9.35;;;;;;;;;;4956145;28;20039;-83
2021/09/07 13:33:17;;;;;;;11.60;9.10;;;;;;;;;;4964755;28;20075;-84
2021/09/07 13:35:44;;;;;;;10.52;9.15;;;;;;;;;;4969093;28;20500;-82
2021/09/07 13:38:12;;;;;;;10.57;8.65;;;;;;;;;;4969409;28;20504;-82
2021/09/07 13:40:41;;;;;;;10.20;9.20;;;;;;;;;;4974969;28;20065;-83
2021/09/07 13:43:08;;;;;;;10.55;9.13;;;;;;;;;;4966069;28;20062;-83
2021/09/07 13:45:36;;;;;;;10.77;9.40;;;;;;;;;;4968368;28;20073;-83
2021/09/07 13:48:03;;;;;;;10.57;9.57;;;;;;;;;;4961762;28;20038;-83
2021/09/07 13:50:31;;;;;;;11.50;10.13;;;;;;;;;;4964610;28;20050;-83
2021/09/07 13:52:58;;;;;;;13.40;10.60;;;;;;;;;;4970713;28;20398;-83
2021/09/07 13:55:26;;;;;;;10.65;9.50;;;;;;;;;;4943679;28;20126;-83
2021/09/07 13:57:54;;;;;;;13.48;10.43;;;;;;;;;;4962044;28;20460;-83
2021/09/07 14:00:22;;;;;;;11.25;10.15;;;;;;;;;;4959264;28;20458;-83
2021/09/07 14:02:49;;;;;;;10.77;9.68;;;;;;;;;;4968672;28;20043;-83
2021/09/07 14:05:16;;;;;;;11.45;9.07;;;;;;;;;;4963553;28;20511;-83
2021/09/07 14:07:44;;;;;;;11.45;9.65;;;;;;;;;;4957956;28;20450;-83
2021/09/07 14:10:13;;;;;;;10.65;9.23;;;;;;;;;;4965166;28;20031;-83
2021/09/07 14:12:41;;;;;;;11.82;9.07;;;;;;;;;;4964166;28;20046;-83
2021/09/07 14:15:11;;;;;;;10.73;9.45;;;;;;;;;;4940510;28;20243;-83
2021/09/07 14:17:39;;;;;;;10.73;9.73;;;;;;;;;;4939245;29;20043;-82
2021/09/07 14:20:07;;;;;;;11.48;9.18;;;;;;;;;;4950101;28;20066;-84
2021/09/07 14:22:35;;;;;;;11.60;8.95;;;;;;;;;;4969158;28;20046;-82
2021/09/07 14:25:02;;;;;;;10.18;8.90;;;;;;;;;;4971952;28;20051;-83
2021/09/07 14:27:30;;;;;;;14.50;9.30;;;;;;;;;;4963817;28;20063;-82
2021/09/07 14:29:57;;;;;;;11.07;9.77;;;;;;;;;;4972309;28;20047;-83
2021/09/07 14:32:26;;;;;;;11.02;9.02;;;;;;;;;;4966614;28;20042;-82
2021/09/07 14:34:54;;;;;;;9.55;8.55;;;;;;;;;;4962083;28;20039;-82
2021/09/07 14:37:22;;;;;;;12.57;9.75;;;;;;;;;;4969242;28;20039;-83
2021/09/07 14:39:50;;;;;;;10.93;8.50;;;;;;;;;;4972150;28;20221;-83
2021/09/07 14:42:17;;;;;;;10.05;9.15;;;;;;;;;;4988014;28;20094;-83
2021/09/07 14:44:44;;;;;;;11.00;9.35;;;;;;;;;;4993980;28;20062;-83
2021/09/07 14:47:12;;;;;;;9.25;8.45;;;;;;;;;;4988469;28;20042;-83
2021/09/07 14:49:42;;;;;;;11.27;9.45;;;;;;;;;;4978681;28;20031;-82
2021/09/07 14:52:09;;;;;;;11.88;8.85;;;;;;;;;;4970074;28;20054;-83
2021/09/07 14:54:36;;;;;;;9.98;8.95;;;;;;;;;;4983974;28;20102;-83
2021/09/07 14:57:04;;;;;;;10.00;9.00;;;;;;;;;;4973568;28;20097;-83
2021/09/07 14:59:32;;;;;;;10.13;8.75;;;;;;;;;;4973278;28;20054;-83
2021/09/07 15:01:59;;;;;;;11.70;9.85;;;;;;;;;;4973188;28;20043;-83
2021/09/07 15:04:27;;;;;;;10.35;8.88;;;;;;;;;;4972851;28;20167;-83
2021/09/07 15:06:56;;;;;;;11.43;9.77;;;;;;;;;;4973571;28;20050;-83
2021/09/07 15:09:23;;;;;;;9.65;8.75;;;;;;;;;;4942491;29;20044;-83
2021/09/07 15:11:51;;;;;;;11.63;9.27;;;;;;;;;;4970993;28;20258;-83
2021/09/07 15:14:18;;;;;;;10.48;9.38;;;;;;;;;;4956606;28;20074;-82
2021/09/07 15:16:46;;;;;;;10.15;9.05;;;;;;;;;;4970172;28;20043;-83
2021/09/07 15:19:13;;;;;;;11.65;8.68;;;;;;;;;;4948234;28;20046;-83
2021/09/07 15:21:41;;;;;;;11.68;8.68;;;;;;;;;;4955783;28;20566;-83
2021/09/07 15:24:11;;;;;;;10.25;9.13;;;;;;;;;;4972827;28;20050;-83
2021/09/07 15:26:38;;;;;;;10.60;9.65;;;;;;;;;;4955450;28;20047;-83
2021/09/07 15:29:05;;;;;;;9.77;8.80;;;;;;;;;;4957856;28;20090;-83
2021/09/07 15:31:34;;;;;;;9.52;8.60;;;;;;;;;;4970501;28;20559;-83
2021/09/07 15:34:02;;;;;;;15.48;9.77;;;;;;;;;;4972425;28;20043;-82
2021/09/07 15:36:30;;;;;;;9.70;8.70;;;;;;;;;;4971868;28;20043;-83
2021/09/07 15:38:58;;;;;;;13.93;9.00;;;;;;;;;;4972085;28;20043;-83
2021/09/07 15:41:26;;;;;;;10.27;8.98;;;;;;;;;;4956640;28;20050;-83
2021/09/07 15:43:54;;;;;;;11.75;9.05;;;;;;;;;;4955590;28;20070;-83
2021/09/07 15:46:21;;;;;;;10.02;8.82;;;;;;;;;;4973305;28;20102;-83
2021/09/07 15:48:48;;;;;;;11.63;9.68;;;;;;;;;;4973592;28;20039;-83
2021/09/07 15:51:16;;;;;;;10.98;9.88;;;;;;;;;;4973023;28;20055;-83
2021/09/07 15:53:45;;;;;;;11.45;10.32;;;;;;;;;;4971865;28;20078;-83
2021/09/07 15:56:13;;;;;;;10.02;9.05;;;;;;;;;;4971574;28;20057;-83
2021/09/07 15:58:42;;;;;;;12.98;9.68;;;;;;;;;;4971646;28;20043;-83
2021/09/07 16:01:09;;;;;;;12.93;10.35;;;;;;;;;;4972120;28;20272;-83
2021/09/07 16:03:37;;;;;;;14.32;10.05;;;;;;;;;;4954716;28;20074;-83
2021/09/07 16:06:05;;;;;;;11.40;9.77;;;;;;;;;;4955355;28;20399;-83
2021/09/07 16:08:32;;;;;;;12.50;10.25;;;;;;;;;;4971787;28;20054;-83
2021/09/07 16:10:59;;;;;;;11.70;10.48;;;;;;;;;;4970885;28;20127;-82
2021/09/07 16:13:27;;;;;;;12.77;10.65;;;;;;;;;;4971986;28;20150;-83
2021/09/07 16:15:56;;;;;;;14.82;10.25;;;;;;;;;;4973041;28;20062;-83
2021/09/07 16:18:23;;;;;;;13.00;11.00;;;;;;;;;;4971352;28;20038;-83
2021/09/07 16:20:50;;;;;;;11.55;10.07;;;;;;;;;;4971845;28;20780;-83
2021/09/07 16:23:19;;;;;;;13.55;10.68;;;;;;;;;;4971807;28;20050;-83
2021/09/07 16:25:46;;;;;;;10.88;9.80;;;;;;;;;;4955805;28;20073;-83
2021/09/07 16:28:14;;;;;;;12.38;10.05;;;;;;;;;;4971113;28;20051;-83
2021/09/07 16:30:41;;;;;;;12.68;11.25;;;;;;;;;;4971498;28;20046;-82
2021/09/07 16:33:10;;;;;;;12.55;11.30;;;;;;;;;;4969487;28;20046;-83
2021/09/07 16:35:37;;;;;;;13.20;10.75;;;;;;;;;;4971296;28;20050;-83
2021/09/07 16:38:05;;;;;;;14.73;11.45;;;;;;;;;;4971545;28;20095;-83
2021/09/07 16:40:32;;;;;;;13.20;11.52;;;;;;;;;;4972818;28;20106;-83
2021/09/07 16:43:00;;;;;;;16.05;11.65;;;;;;;;;;4971716;28;20062;-83
2021/09/07 16:45:28;;;;;;;13.40;10.95;;;;;;;;;;4953987;28;20035;-83
2021/09/07 16:47:58;;;;;;;12.40;11.02;;;;;;;;;;4957120;28;20378;-83
2021/09/07 16:50:28;;;;;;;13.77;11.90;;;;;;;;;;4970435;28;20133;-83
2021/09/07 16:53:05;;;;;;;13.32;11.30;;;;;;;;;;4963575;28;20050;-83
2021/09/07 16:55:37;;;;;;;11.73;10.60;;;;;;;;;;4964782;28;20460;-83
2021/09/07 16:58:04;;;;;;;15.57;11.50;;;;;;;;;;4954016;28;20499;-82
2021/09/07 17:00:31;;;;;;;13.70;11.80;;;;;;;;;;4959107;28;20067;-83
2021/09/07 17:02:59;;;;;;;17.17;11.43;;;;;;;;;;4960593;28;20213;-83
2021/09/07 17:05:28;;;;;;;12.77;10.52;;;;;;;;;;4963530;28;20050;-83
2021/09/07 17:08:02;;;;;;;16.50;10.93;;;;;;;;;;4952397;29;20043;-84
2021/09/07 17:10:30;;;;;;;11.82;10.63;;;;;;;;;;4967067;28;20118;-83
2021/09/07 17:12:57;;;;;;;16.10;11.25;;;;;;;;;;4955252;28;20513;-83
2021/09/07 17:15:24;;;;;;;12.32;10.88;;;;;;;;;;4953918;28;20102;-84
2021/09/07 17:17:52;;;;;;;17.65;11.35;;;;;;;;;;4953119;28;20461;-83
2021/09/07 17:20:20;;;;;;;15.20;11.50;;;;;;;;;;4962801;28;20068;-84
2021/09/07 17:22:51;;;;;;;13.32;11.43;;;;;;;;;;4957516;28;20050;-84
2021/09/07 17:25:18;;;;;;;14.07;12.23;;;;;;;;;;4967691;28;20179;-83
2021/09/07 17:27:49;;;;;;;15.43;11.57;;;;;;;;;;4937410;29;20043;-84
2021/09/07 17:30:18;;;;;;;16.60;12.43;;;;;;;;;;4953735;28;20047;-84
2021/09/07 17:32:54;;;;;;;16.95;11.75;;;;;;;;;;4979026;28;20034;-84
2021/09/07 17:35:25;;;;;;;12.85;11.65;;;;;;;;;;4971523;28;20050;-83
2021/09/07 17:43:27;;;;;;;17.02;11.73;;;;;;;;;;4981701;28;20039;-84
2021/09/07 17:45:54;;;;;;;15.38;11.30;;;;;;;;;;4966510;28;20500;-84
2021/09/07 17:48:23;;;;;;;18.70;12.65;;;;;;;;;;4967075;28;20098;-84
2021/09/07 17:50:51;;;;;;;17.35;12.38;;;;;;;;;;4958073;28;20051;-83
2021/09/07 17:53:20;;;;;;;14.65;11.98;;;;;;;;;;4960893;28;20046;-83
2021/09/07 17:55:48;;;;;;;13.48;11.63;;;;;;;;;;4983822;28;20105;-83
2021/09/07 17:58:16;;;;;;;14.82;11.98;;;;;;;;;;4953483;28;20053;-83
2021/09/07 18:00:44;;;;;;;16.73;11.50;;;;;;;;;;4954265;28;20133;-83
2021/09/07 18:03:11;;;;;;;16.73;11.57;;;;;;;;;;4976463;28;20093;-82
2021/09/07 18:05:39;;;;;;;13.23;11.82;;;;;;;;;;4976108;28;20079;-84
2021/09/07 18:08:07;;;;;;;17.58;12.48;;;;;;;;;;4975676;28;20051;-84
2021/09/07 18:10:35;;;;;;;18.67;12.30;;;;;;;;;;4976079;28;20078;-84
2021/09/07 18:13:03;;;;;;;17.73;13.20;;;;;;;;;;4976225;28;20073;-84
2021/09/07 18:15:31;;;;;;;16.77;12.68;;;;;;;;;;4977184;28;20050;-84
2021/09/07 18:17:58;;;;;;;16.63;12.35;;;;;;;;;;4974139;28;20043;-84
2021/09/07 18:20:26;;;;;;;13.98;12.40;;;;;;;;;;4977245;28;20046;-84
2021/09/07 18:22:54;;;;;;;17.13;12.60;;;;;;;;;;4976632;28;20043;-84
2021/09/07 18:25:21;;;;;;;17.85;12.73;;;;;;;;;;4957990;28;20497;-84
2021/09/07 18:27:51;;;;;;;15.13;13.40;;;;;;;;;;4987352;28;20046;-84
2021/09/07 18:30:18;;;;;;;18.17;12.18;;;;;;;;;;4980860;28;20042;-84
2021/09/07 18:32:47;;;;;;;18.17;13.38;;;;;;;;;;4973610;28;20070;-85
2021/09/07 18:35:14;;;;;;;20.83;14.15;;;;;;;;;;4991456;28;20089;-84
2021/09/07 18:37:42;;;;;;;21.77;15.02;;;;;;;;;;4974555;28;20046;-83
2021/09/07 18:40:10;;;;;;;20.80;14.60;;;;;;;;;;4978673;28;20077;-82
2021/09/07 18:42:40;;;;;;;19.75;14.98;;;;;;;;;;4976841;28;20454;-83
2021/09/07 18:45:10;;;;;;;31.88;15.93;;;;;;;;;;4956865;28;20047;-83
2021/09/07 18:47:37;;;;;;;27.48;16.15;;;;;;;;;;4974313;28;20051;-83
2021/09/07 18:50:05;;;;;;;22.13;14.90;;;;;;;;;;4974894;28;20047;-83
2021/09/07 18:52:33;;;;;;;25.77;15.32;;;;;;;;;;4971898;28;20044;-83
2021/09/07 18:55:02;;;;;;;25.02;15.82;;;;;;;;;;4952543;29;20061;-83
2021/09/07 18:57:29;;;;;;;23.02;15.60;;;;;;;;;;4961476;28;20117;-83
2021/09/07 18:59:57;;;;;;;25.48;15.23;;;;;;;;;;4949014;28;20126;-82
2021/09/07 19:02:25;;;;;;;28.73;14.75;;;;;;;;;;4955607;28;20047;-82
2021/09/07 19:04:53;;;;;;;23.15;15.73;;;;;;;;;;4956988;28;20051;-82
2021/09/07 19:07:21;;;;;;;20.35;14.55;;;;;;;;;;4954863;28;20050;-82
2021/09/07 19:09:49;;;;;;;20.40;14.52;;;;;;;;;;4955665;28;20054;-82
2021/09/07 19:12:22;;;;;;;17.73;14.77;;;;;;;;;;4959591;28;20048;-82
2021/09/07 19:14:51;;;;;;;18.60;15.35;;;;;;;;;;4938077;29;20051;-83
2021/09/07 19:17:19;;;;;;;17.85;14.43;;;;;;;;;;4960508;28;20031;-82
2021/09/07 19:19:50;;;;;;;17.33;15.00;;;;;;;;;;4950888;29;20042;-82
2021/09/07 19:22:18;;;;;;;19.17;15.13;;;;;;;;;;4936616;29;20070;-83
2021/09/07 19:24:46;;;;;;;18.48;14.25;;;;;;;;;;4964321;28;20051;-82
2021/09/07 19:27:13;;;;;;;20.77;14.93;;;;;;;;;;4967118;28;20031;-82
2021/09/07 19:29:41;;;;;;;18.27;15.68;;;;;;;;;;4969514;28;20039;-83
2021/09/07 19:32:09;;;;;;;19.65;14.93;;;;;;;;;;4968508;28;20039;-84